Archival Weather

Norman Y Mineta San Jose Intl

San Jose, California (KSJC)

Report from: Saturday, February 10, 2024 4:53 PM PST
Current time: Monday, June 24, 2024 3:05 AM PDT

Current weather – Weather history – Daily summaries
Weather forecast

Temperature16.1°C (61.0°F)
Dew point1.1°C (34.0°F)
Winds 5 kts (2.6 m/s, 5.8 mph) Northwest (310°)
Visibility10 mi. (16.1 km)
Clouds Few clouds 2,100 ft. (640 m)
Altimeter30.12 in.Hg (1020 mB)
Relative humidity36 %
Density altitude11 ft. (3 m)
Sea-level pressure102.0 kPa (1020 mB, 30.11 in.Hg)
Remarks Automated weather observing station with precipitation discriminator
Flight conditions Visual Meteorological Conditions
Raw dataKSJC 110053Z 31005KT 10SM FEW021 16/01 A3012 RMK AO2 SLP198 T01610011
An error has occurred. This application may no longer respond until reloaded. Reload 🗙